Terminal Aerodrome Forecast
Issued by NWS

Home | Current Version | Previous Version | Text Only | Print | Product List | Glossary On
Versions: 1 2 3 4 5 6 7 8 9 10 11 12 13 14 15
000
FTUS41 KPHI 240000 AAA
TAFPNE
TAF AMD
KPNE 240059Z 2401/2424 24008KT P6SM VCTS SCT040CB BKN120
      TEMPO 2401/2403 6SM -SHRA BKN040
     FM240300 26006KT 6SM -SHRA BR BKN050
     FM240500 33007KT P6SM FEW030 BKN100
     FM241400 34010KT P6SM BKN050=

USA.gov is the U.S. government's official web portal to all federal, state and local government web resources and services.